Time;durP1;ratioP1;P1;durP2;ratioP2;P2;SDS_P1;SDS_P2;PMS_P1;PMS_P2;Temp;Humidity;BMP_temperature;BMP_pressure;BME280_temperature;BME280_humidity;BME280_pressure;Samples;Min_cycle;Max_cycle;Signal;HPM_P1;HPM_P2
2023/01/01 00:00:17;;;;;;;;;;;;;;;26.09;49.08;98340.69;613473;231;66044;-67
2023/01/01 00:02:45;;;;;;;;;;;;;;;26.10;50.92;98339.59;613466;231;68694;-67
2023/01/01 00:05:12;;;;;;;;;;;;;;;26.09;49.81;98338.80;613490;231;68565;-67
2023/01/01 00:07:40;;;;;;;;;;;;;;;26.08;48.67;98345.27;613451;231;65249;-67
2023/01/01 00:10:27;;;;;;;;;;;;;;;26.07;49.35;98343.64;613465;231;68709;-67
2023/01/01 00:12:55;;;;;;;;;;;;;;;26.08;49.67;98357.91;613468;231;68296;-67
2023/01/01 00:15:24;;;;;;;;;;;;;;;26.08;50.68;98355.22;613474;231;64985;-67
2023/01/01 00:17:51;;;;;;;;;;;;;;;26.05;49.54;98355.77;613539;231;68787;-67
2023/01/01 00:20:19;;;;;;;;;;;;;;;26.03;49.05;98357.95;613428;231;69042;-67
2023/01/01 00:22:47;;;;;;;;;;;;;;;26.03;48.87;98357.95;613454;231;65169;-67
2023/01/01 00:25:14;;;;;;;;;;;;;;;26.01;49.86;98350.13;613469;231;68798;-67
2023/01/01 00:27:42;;;;;;;;;;;;;;;26.02;49.80;98350.92;614211;231;66610;-67
2023/01/01 00:30:10;;;;;;;;;;;;;;;26.01;49.64;98357.41;614749;231;63833;-67
2023/01/01 00:32:37;;;;;;;;;;;;;;;26.00;47.79;98353.08;614740;231;68855;-67
2023/01/01 00:35:05;;;;;;;;;;;;;;;26.00;48.64;98369.23;614668;231;68450;-67
2023/01/01 00:37:33;;;;;;;;;;;;;;;25.99;48.72;98364.94;614734;231;65120;-67
2023/01/01 00:40:00;;;;;;;;;;;;;;;25.98;49.23;98369.52;614704;231;68350;-67
2023/01/01 00:42:27;;;;;;;;;;;;;;;25.97;49.19;98367.09;614695;231;66452;-67
2023/01/01 00:44:55;;;;;;;;;;;;;;;25.96;49.84;98360.90;614734;231;62997;-67
2023/01/01 00:47:22;;;;;;;;;;;;;;;25.96;48.68;98362.79;614701;231;68778;-67
2023/01/01 00:49:52;;;;;;;;;;;;;;;25.94;49.07;98360.36;614700;231;51984;-67
2023/01/01 00:52:19;;;;;;;;;;;;;;;25.94;49.97;98348.78;614717;231;65037;-67
2023/01/01 00:54:47;;;;;;;;;;;;;;;25.93;50.62;98358.75;614709;231;68513;-67
2023/01/01 00:57:14;;;;;;;;;;;;;;;25.91;48.46;98361.70;614755;231;68333;-67
2023/01/01 00:59:41;;;;;;;;;;;;;;;25.90;51.32;98360.09;614686;231;63018;-67
2023/01/01 01:02:09;;;;;;;;;;;;;;;25.90;50.73;98362.79;614692;231;68808;-67
2023/01/01 01:04:36;;;;;;;;;;;;;;;25.88;50.53;98356.86;614665;231;68650;-67
2023/01/01 01:07:04;;;;;;;;;;;;;;;25.87;49.84;98357.95;614676;231;65021;-67
2023/01/01 01:09:31;;;;;;;;;;;;;;;25.85;49.54;98352.02;614698;231;68929;-67
2023/01/01 01:11:59;;;;;;;;;;;;;;;25.86;50.35;98353.66;614682;231;68653;-67
2023/01/01 01:14:26;;;;;;;;;;;;;;;25.85;49.22;98348.52;614587;231;65054;-67
2023/01/01 01:16:54;;;;;;;;;;;;;;;25.84;50.56;98339.64;614645;231;68815;-67
2023/01/01 01:19:22;;;;;;;;;;;;;;;25.84;50.99;98344.23;613805;231;68664;-67
2023/01/01 01:21:51;;;;;;;;;;;;;;;25.83;51.13;98339.87;613721;231;64865;-67
2023/01/01 01:24:18;;;;;;;;;;;;;;;25.82;52.00;98335.58;614373;231;66729;-67
2023/01/01 01:26:45;;;;;;;;;;;;;;;25.80;52.40;98333.14;614416;231;66439;-67
2023/01/01 01:29:13;;;;;;;;;;;;;;;25.80;50.78;98318.88;614390;231;63074;-67
2023/01/01 01:31:40;;;;;;;;;;;;;;;25.78;51.88;98326.41;614439;231;66437;-68
2023/01/01 01:34:08;;;;;;;;;;;;;;;25.78;51.52;98318.33;614671;231;66888;-67
2023/01/01 01:36:35;;;;;;;;;;;;;;;25.78;52.22;98326.41;614669;231;63678;-67
2023/01/01 01:39:03;;;;;;;;;;;;;;;25.77;52.38;98325.60;614663;231;68775;-67
2023/01/01 01:41:30;;;;;;;;;;;;;;;25.76;50.93;98329.39;614659;231;68658;-67
2023/01/01 01:44:03;;;;;;;;;;;;;;;25.75;49.52;98335.83;614645;231;64999;-71
2023/01/01 01:46:32;;;;;;;;;;;;;;;25.75;49.42;98333.14;614625;231;68871;-72
2023/01/01 01:49:04;;;;;;;;;;;;;;;25.74;49.57;98336.92;614714;231;68566;-72
2023/01/01 01:51:35;;;;;;;;;;;;;;;25.73;51.00;98332.63;614637;231;63632;-71
2023/01/01 01:54:04;;;;;;;;;;;;;;;25.72;50.98;98333.69;614681;231;68398;-70
2023/01/01 01:56:33;;;;;;;;;;;;;;;25.71;50.50;98337.47;614640;231;68907;-70
2023/01/01 01:59:01;;;;;;;;;;;;;;;25.69;50.66;98340.41;614487;230;65066;-70
2023/01/01 02:01:28;;;;;;;;;;;;;;;25.68;50.21;98338.81;614719;231;69112;-70
2023/01/01 02:03:58;;;;;;;;;;;;;;;25.67;50.20;98339.89;614657;231;68684;-70
2023/01/01 02:06:27;;;;;;;;;;;;;;;25.68;50.90;98340.70;614676;231;62953;-70
2023/01/01 02:08:56;;;;;;;;;;;;;;;25.66;50.93;98334.77;614644;231;66636;-70
2023/01/01 02:11:24;;;;;;;;;;;;;;;25.65;52.08;98333.97;614648;231;66618;-70
2023/01/01 02:13:53;;;;;;;;;;;;;;;25.65;50.46;98338.55;614682;231;63110;-70
2023/01/01 02:16:22;;;;;;;;;;;;;;;25.64;50.39;98339.61;614750;231;66569;-70
2023/01/01 02:18:53;;;;;;;;;;;;;;;25.63;50.33;98340.70;614612;231;66738;-71
2023/01/01 02:21:23;;;;;;;;;;;;;;;25.62;51.95;98344.48;614516;230;65064;-70
2023/01/01 02:24:08;;;;;;;;;;;;;;;25.60;51.05;98333.96;614256;230;68799;-70
2023/01/01 02:26:41;;;;;;;;;;;;;;;25.61;50.81;98334.77;614605;231;69425;-70
2023/01/01 02:29:26;;;;;;;;;;;;;;;25.60;52.17;98333.16;614687;231;64898;-70
2023/01/01 02:31:55;;;;;;;;;;;;;;;25.60;51.35;98330.47;614711;231;66648;-70
2023/01/01 02:34:24;;;;;;;;;;;;;;;25.59;49.98;98331.53;611742;231;66419;-67
2023/01/01 02:36:53;;;;;;;;;;;;;;;25.58;49.63;98335.31;614649;231;67517;-67
2023/01/01 02:39:22;;;;;;;;;;;;;;;25.57;50.29;98336.39;614646;231;68745;-67
2023/01/01 02:41:51;;;;;;;;;;;;;;;25.56;49.80;98334.76;614684;231;66488;-67
2023/01/01 02:44:19;;;;;;;;;;;;;;;25.57;50.30;98339.09;614656;231;63009;-67
2023/01/01 02:46:47;;;;;;;;;;;;;;;25.56;49.80;98337.45;614692;231;66657;-67
2023/01/01 02:49:14;;;;;;;;;;;;;;;25.56;50.99;98337.45;614637;231;66920;-67
2023/01/01 02:51:43;;;;;;;;;;;;;;;25.54;49.68;98339.63;614678;231;62899;-66
2023/01/01 02:54:12;;;;;;;;;;;;;;;25.53;50.42;98337.99;614407;230;68862;-67
2023/01/01 02:56:42;;;;;;;;;;;;;;;25.51;50.27;98335.59;614532;230;68803;-67
2023/01/01 03:02:00;;;;;;;;;;;;;;;25.49;51.11;98335.05;614766;231;68815;-67
2023/01/01 03:04:32;;;;;;;;;;;;;;;25.48;51.71;98330.72;614601;230;66564;-67
2023/01/01 03:07:01;;;;;;;;;;;;;;;25.47;51.32;98334.49;614667;231;62677;-67
2023/01/01 03:09:31;;;;;;;;;;;;;;;25.46;50.18;98338.27;614656;231;66186;-67
2023/01/01 03:12:07;;;;;;;;;;;;;;;25.46;51.56;98339.08;614702;231;66589;-67
2023/01/01 03:14:38;;;;;;;;;;;;;;;25.44;50.68;98333.14;614712;231;62817;-67
2023/01/01 03:17:08;;;;;;;;;;;;;;;25.44;51.17;98333.14;614252;230;68892;-67
2023/01/01 03:19:37;;;;;;;;;;;;;;;25.43;51.68;98333.43;614050;231;68870;-67
2023/01/01 03:22:06;;;;;;;;;;;;;;;25.43;52.27;98336.12;614689;231;62544;-67
2023/01/01 03:24:38;;;;;;;;;;;;;;;25.42;52.42;98327.22;614675;231;68838;-67
2023/01/01 03:27:07;;;;;;;;;;;;;;;25.40;52.18;98329.39;612063;230;68624;-67
2023/01/01 03:29:36;;;;;;;;;;;;;;;25.39;50.33;98321.57;613514;231;65182;-67
2023/01/01 03:32:04;;;;;;;;;;;;;;;25.38;51.20;98320.77;613397;231;68696;-67
2023/01/01 03:34:33;;;;;;;;;;;;;;;25.38;50.29;98325.34;613458;231;68747;-67
2023/01/01 03:37:02;;;;;;;;;;;;;;;25.37;51.71;98327.23;613461;231;63028;-67
2023/01/01 03:39:40;;;;;;;;;;;;;;;25.37;51.96;98329.93;613439;231;66660;-67
2023/01/01 03:42:25;;;;;;;;;;;;;;;25.36;50.45;98330.98;613406;231;68886;-68
2023/01/01 03:44:56;;;;;;;;;;;;;;;25.35;51.50;98329.38;613476;231;63033;-68
2023/01/01 03:47:24;;;;;;;;;;;;;;;25.33;52.25;98328.83;613338;230;68856;-68
2023/01/01 03:49:51;;;;;;;;;;;;;;;25.34;52.02;98332.33;613474;231;68712;-68
2023/01/01 03:52:37;;;;;;;;;;;;;;;25.32;49.86;98327.23;613465;231;65118;-71
2023/01/01 03:55:12;;;;;;;;;;;;;;;25.32;51.97;98329.09;613427;231;68777;-71
2023/01/01 03:57:46;;;;;;;;;;;;;;;25.31;51.54;98328.28;613374;230;66409;-71
2023/01/01 04:00:15;;;;;;;;;;;;;;;25.31;51.92;98322.91;613365;230;62993;-71
2023/01/01 04:02:44;;;;;;;;;;;;;;;25.29;51.17;98327.77;613449;231;68660;-71
2023/01/01 04:05:13;;;;;;;;;;;;;;;25.28;52.00;98334.20;613346;230;69014;-71
2023/01/01 04:07:41;;;;;;;;;;;;;;;25.29;53.73;98332.31;613414;231;65080;-71
2023/01/01 04:10:17;;;;;;;;;;;;;;;25.26;52.60;98333.66;613447;231;66555;-71
2023/01/01 04:12:47;;;;;;;;;;;;;;;25.25;51.18;98332.05;613453;231;68791;-71
2023/01/01 04:15:15;;;;;;;;;;;;;;;25.24;50.11;98342.02;613516;231;63037;-71
2023/01/01 04:17:43;;;;;;;;;;;;;;;25.25;53.06;98342.81;613464;231;68838;-71
2023/01/01 04:20:11;;;;;;;;;;;;;;;25.23;51.78;98334.19;613451;231;68714;-71
2023/01/01 04:22:38;;;;;;;;;;;;;;;25.22;50.99;98337.97;613471;231;64956;-71
2023/01/01 04:25:06;;;;;;;;;;;;;;;25.21;51.69;98342.55;613473;231;68501;-71
2023/01/01 04:27:33;;;;;;;;;;;;;;;25.21;52.22;98336.36;613448;231;68703;-71
2023/01/01 04:30:01;;;;;;;;;;;;;;;25.18;53.02;98340.39;613436;231;64892;-68
2023/01/01 04:32:29;;;;;;;;;;;;;;;25.19;52.46;98335.81;613467;231;69040;-68
2023/01/01 04:34:57;;;;;;;;;;;;;;;25.19;52.20;98341.20;613410;231;68741;-68
2023/01/01 04:37:24;;;;;;;;;;;;;;;25.17;52.70;98337.95;613465;231;65025;-68
2023/01/01 04:39:52;;;;;;;;;;;;;;;25.16;51.76;98345.23;613497;231;68933;-68
2023/01/01 04:42:19;;;;;;;;;;;;;;;25.17;53.23;98348.72;613447;231;68831;-68
2023/01/01 04:44:47;;;;;;;;;;;;;;;25.16;50.47;98344.42;613479;231;65011;-71
2023/01/01 04:47:14;;;;;;;;;;;;;;;25.15;52.65;98342.78;613476;231;68476;-71
2023/01/01 04:49:42;;;;;;;;;;;;;;;25.14;49.74;98352.72;613495;231;68439;-71
2023/01/01 04:52:09;;;;;;;;;;;;;;;25.14;50.56;98351.91;613471;231;65051;-71
2023/01/01 04:54:37;;;;;;;;;;;;;;;25.13;51.62;98353.00;613510;231;66383;-71
2023/01/01 04:57:04;;;;;;;;;;;;;;;25.12;52.59;98351.36;613468;231;66591;-71
2023/01/01 04:59:32;;;;;;;;;;;;;;;25.11;52.12;98347.06;613477;231;62921;-71
2023/01/01 05:01:59;;;;;;;;;;;;;;;25.11;52.79;98350.56;613465;231;66066;-71
2023/01/01 05:04:26;;;;;;;;;;;;;;;25.10;53.58;98340.88;613454;231;66329;-68
2023/01/01 05:06:54;;;;;;;;;;;;;;;25.09;52.37;98344.63;613523;231;63850;-68
2023/01/01 05:09:22;;;;;;;;;;;;;;;25.10;53.40;98345.43;613451;231;68308;-68
2023/01/01 05:11:49;;;;;;;;;;;;;;;25.08;51.06;98350.30;613458;231;68561;-68
2023/01/01 05:14:17;;;;;;;;;;;;;;;25.09;53.65;98341.14;613434;231;65074;-68
2023/01/01 05:16:44;;;;;;;;;;;;;;;25.06;52.13;98345.16;613467;231;68821;-68
2023/01/01 05:19:12;;;;;;;;;;;;;;;25.06;53.79;98347.05;613478;231;69057;-68
2023/01/01 05:21:44;;;;;;;;;;;;;;;25.04;51.66;98352.68;613504;231;46019;-68
2023/01/01 05:24:12;;;;;;;;;;;;;;;25.03;52.60;98354.57;613459;231;68737;-68
2023/01/01 05:26:41;;;;;;;;;;;;;;;25.02;49.85;98361.03;613389;231;68591;-68
2023/01/01 05:29:08;;;;;;;;;;;;;;;25.01;51.13;98359.39;613416;231;63663;-68
2023/01/01 05:31:36;;;;;;;;;;;;;;;25.01;53.90;98359.39;613497;231;68659;-68
2023/01/01 05:34:04;;;;;;;;;;;;;;;25.01;50.69;98355.91;613422;231;68595;-68
2023/01/01 05:36:33;;;;;;;;;;;;;;;25.00;53.52;98357.80;613477;231;63677;-68
2023/01/01 05:39:00;;;;;;;;;;;;;;;24.99;51.86;98356.19;613441;231;68291;-68
2023/01/01 05:41:29;;;;;;;;;;;;;;;24.98;51.47;98356.44;613407;231;68543;-68
2023/01/01 05:43:57;;;;;;;;;;;;;;;24.98;51.91;98356.44;613412;231;62789;-68
2023/01/01 05:46:24;;;;;;;;;;;;;;;24.97;50.14;98360.21;613481;231;66730;-68
2023/01/01 05:48:52;;;;;;;;;;;;;;;24.96;51.77;98366.64;613427;231;66451;-68
2023/01/01 05:51:21;;;;;;;;;;;;;;;24.95;49.84;98363.15;613454;231;62782;-68
2023/01/01 05:53:50;;;;;;;;;;;;;;;24.95;52.24;98365.03;613415;231;66045;-68
2023/01/01 05:56:18;;;;;;;;;;;;;;;24.93;52.30;98359.11;613463;231;66594;-67
2023/01/01 05:58:46;;;;;;;;;;;;;;;24.92;52.79;98350.23;613470;231;62912;-67
2023/01/01 06:01:16;;;;;;;;;;;;;;;24.91;52.50;98343.25;613263;229;67781;-68
2023/01/01 06:03:44;;;;;;;;;;;;;;;24.91;51.17;98355.87;613361;229;66481;-71
2023/01/01 06:06:13;;;;;;;;;;;;;;;24.89;51.23;98348.08;613461;231;63134;-71
2023/01/01 06:08:41;;;;;;;;;;;;;;;24.88;51.57;98349.16;613366;231;68882;-71
2023/01/01 06:11:10;;;;;;;;;;;;;;;24.88;51.90;98346.48;613506;231;68697;-72
2023/01/01 06:13:38;;;;;;;;;;;;;;;24.88;51.60;98349.16;613437;231;65101;-71
2023/01/01 06:16:06;;;;;;;;;;;;;;;24.87;51.78;98347.53;613425;231;68816;-71
2023/01/01 06:18:34;;;;;;;;;;;;;;;24.85;52.35;98349.66;613438;231;68761;-71
2023/01/01 06:21:06;;;;;;;;;;;;;;;24.85;52.72;98349.66;613344;231;65157;-71
2023/01/01 06:23:33;;;;;;;;;;;;;;;24.85;53.59;98346.17;613446;231;68804;-71
2023/01/01 06:26:20;;;;;;;;;;;;;;;24.84;53.74;98347.26;613489;231;68398;-71
2023/01/01 06:28:48;;;;;;;;;;;;;;;24.81;50.72;98343.22;613440;231;62839;-71
2023/01/01 06:31:17;;;;;;;;;;;;;;;24.82;53.16;98350.20;613468;231;68884;-71
2023/01/01 06:33:45;;;;;;;;;;;;;;;24.81;52.43;98349.39;613404;231;69570;-71
2023/01/01 06:36:13;;;;;;;;;;;;;;;24.80;52.30;98352.36;613476;231;65067;-72
2023/01/01 06:38:42;;;;;;;;;;;;;;;24.80;53.06;98363.12;613531;231;68646;-72
2023/01/01 06:41:14;;;;;;;;;;;;;;;24.78;52.57;98359.88;613508;231;68507;-71
2023/01/01 06:43:42;;;;;;;;;;;;;;;24.77;52.69;98360.93;613486;231;66144;-71
2023/01/01 06:46:11;;;;;;;;;;;;;;;24.76;51.52;98372.77;613440;231;66572;-71
2023/01/01 06:48:38;;;;;;;;;;;;;;;24.76;51.84;98372.77;613459;231;66450;-71
2023/01/01 06:51:07;;;;;;;;;;;;;;;24.75;51.25;98371.96;613484;231;64885;-71
2023/01/01 06:53:35;;;;;;;;;;;;;;;24.74;51.42;98375.70;613504;231;66274;-72
2023/01/01 06:56:02;;;;;;;;;;;;;;;24.74;52.10;98380.28;613462;231;66525;-71
2023/01/01 06:58:30;;;;;;;;;;;;;;;24.73;53.17;98373.30;613416;231;63034;-71
2023/01/01 07:01:06;;;;;;;;;;;;;;;24.72;53.58;98380.55;613458;231;66666;-71
2023/01/01 07:03:33;;;;;;;;;;;;;;;24.71;52.89;98381.61;613479;231;68490;-71
2023/01/01 07:06:01;;;;;;;;;;;;;;;24.70;51.19;98389.95;613515;231;64838;-71
2023/01/01 07:08:28;;;;;;;;;;;;;;;24.70;52.98;98389.95;613458;231;68642;-71
2023/01/01 07:10:56;;;;;;;;;;;;;;;24.69;52.86;98388.31;613431;231;68491;-72
2023/01/01 07:13:28;;;;;;;;;;;;;;;24.69;53.84;98391.00;613463;231;62766;-72
2023/01/01 07:15:55;;;;;;;;;;;;;;;24.68;53.27;98386.71;613473;231;66514;-72
2023/01/01 07:18:24;;;;;;;;;;;;;;;24.68;53.03;98392.09;613469;231;66465;-71
2023/01/01 07:20:53;;;;;;;;;;;;;;;24.67;52.71;98390.48;613531;231;65031;-71
2023/01/01 07:23:21;;;;;;;;;;;;;;;24.67;52.89;98390.48;613365;231;68811;-71
2023/01/01 07:25:49;;;;;;;;;;;;;;;24.67;53.53;98393.97;613454;231;68652;-71
2023/01/01 07:28:17;;;;;;;;;;;;;;;24.66;53.15;98399.59;613443;231;62698;-71
2023/01/01 07:30:44;;;;;;;;;;;;;;;24.65;53.22;98392.61;613451;231;68788;-71
2023/01/01 07:33:12;;;;;;;;;;;;;;;24.65;53.15;98393.41;613524;231;68702;-71
2023/01/01 07:35:41;;;;;;;;;;;;;;;24.65;53.55;98390.73;613458;231;64942;-71
2023/01/01 07:38:08;;;;;;;;;;;;;;;24.63;52.42;98392.05;613446;231;68754;-71
2023/01/01 07:40:36;;;;;;;;;;;;;;;24.63;54.08;98387.48;613497;231;66472;-71
2023/01/01 07:43:03;;;;;;;;;;;;;;;24.62;53.80;98385.87;613464;231;62996;-71
2023/01/01 07:45:31;;;;;;;;;;;;;;;24.63;54.05;98381.30;613525;231;66611;-71
2023/01/01 07:47:59;;;;;;;;;;;;;;;24.61;54.36;98381.58;613416;231;66920;-71
2023/01/01 07:50:28;;;;;;;;;;;;;;;24.61;53.58;98388.81;613431;231;62983;-71
2023/01/01 07:52:55;;;;;;;;;;;;;;;24.60;53.27;98390.70;613439;231;68940;-71
2023/01/01 07:55:23;;;;;;;;;;;;;;;24.62;53.60;98387.77;613471;231;68719;-71
2023/01/01 07:57:50;;;;;;;;;;;;;;;24.59;54.31;98387.20;613516;231;65155;-71
2023/01/01 08:00:19;;;;;;;;;;;;;;;24.58;52.94;98377.54;613496;231;68620;-71
2023/01/01 08:02:46;;;;;;;;;;;;;;;24.58;52.63;98380.22;613482;231;66433;-71
2023/01/01 08:05:14;;;;;;;;;;;;;;;24.59;53.68;98383.72;613445;231;62765;-71
2023/01/01 08:07:43;;;;;;;;;;;;;;;24.56;52.19;98385.05;613466;231;66192;-71
2023/01/01 08:10:10;;;;;;;;;;;;;;;24.57;53.43;98378.59;613398;231;68649;-71
2023/01/01 08:12:38;;;;;;;;;;;;;;;24.55;54.00;98386.13;613489;231;64858;-71
2023/01/01 08:15:06;;;;;;;;;;;;;;;24.54;53.16;98381.80;613450;231;68930;-71
2023/01/01 08:17:33;;;;;;;;;;;;;;;24.53;52.84;98388.26;613455;231;68505;-72
2023/01/01 08:20:01;;;;;;;;;;;;;;;24.54;54.14;98391.75;613456;231;65012;-71
2023/01/01 08:22:29;;;;;;;;;;;;;;;24.53;53.01;98382.88;613454;231;66466;-71
2023/01/01 08:24:56;;;;;;;;;;;;;;;24.53;53.24;98384.77;613512;231;66423;-71
2023/01/01 08:27:23;;;;;;;;;;;;;;;24.51;54.02;98387.70;613426;231;62714;-71
2023/01/01 08:29:51;;;;;;;;;;;;;;;24.52;53.46;98386.63;613476;231;66506;-72
2023/01/01 08:32:18;;;;;;;;;;;;;;;24.51;52.37;98382.33;613420;231;66595;-71
2023/01/01 08:34:46;;;;;;;;;;;;;;;24.51;53.44;98376.16;613441;231;62712;-72
2023/01/01 08:37:14;;;;;;;;;;;;;;;24.51;54.89;98386.90;613493;231;68753;-71
2023/01/01 08:39:41;;;;;;;;;;;;;;;24.50;54.65;98379.89;613414;230;68809;-72
2023/01/01 08:42:08;;;;;;;;;;;;;;;24.49;53.91;98389.84;613476;231;64907;-72
2023/01/01 08:44:36;;;;;;;;;;;;;;;24.48;52.85;98384.73;613456;231;66446;-71
2023/01/01 08:47:04;;;;;;;;;;;;;;;24.48;54.83;98390.91;613461;231;66077;-71
2023/01/01 08:49:31;;;;;;;;;;;;;;;24.48;54.04;98382.05;613513;231;65224;-71
2023/01/01 08:51:59;;;;;;;;;;;;;;;24.47;53.08;98380.41;613475;231;68690;-72
2023/01/01 08:54:26;;;;;;;;;;;;;;;24.47;54.05;98386.63;613416;231;68107;-71
2023/01/01 08:56:54;;;;;;;;;;;;;;;24.47;54.90;98383.94;613490;231;62803;-71
2023/01/01 08:59:21;;;;;;;;;;;;;;;24.45;54.04;98377.20;613491;231;66193;-71
2023/01/01 09:01:50;;;;;;;;;;;;;;;24.44;54.28;98381.73;613441;231;68559;-71
2023/01/01 09:04:17;;;;;;;;;;;;;;;24.45;55.22;98382.58;613473;231;64879;-71
2023/01/01 09:06:45;;;;;;;;;;;;;;;24.43;55.04;98382.80;613489;231;68359;-71
2023/01/01 09:09:12;;;;;;;;;;;;;;;24.42;54.09;98378.50;613457;231;68293;-71
2023/01/01 09:11:41;;;;;;;;;;;;;;;24.42;55.03;98375.81;613516;231;64889;-71
2023/01/01 09:14:09;;;;;;;;;;;;;;;24.42;54.94;98370.44;613235;230;68425;-72
2023/01/01 09:16:36;;;;;;;;;;;;;;;24.42;54.63;98367.75;613436;231;66476;-72
2023/01/01 09:19:04;;;;;;;;;;;;;;;24.41;54.17;98365.31;613481;231;64703;-72
2023/01/01 09:21:31;;;;;;;;;;;;;;;24.40;52.72;98358.33;613439;231;68349;-72
2023/01/01 09:23:59;;;;;;;;;;;;;;;24.40;54.86;98355.64;613452;231;68515;-72
2023/01/01 09:26:26;;;;;;;;;;;;;;;24.39;53.67;98360.22;613586;231;64980;-72
2023/01/01 09:28:53;;;;;;;;;;;;;;;24.38;55.83;98353.20;614685;231;66725;-72
2023/01/01 09:31:21;;;;;;;;;;;;;;;24.37;54.17;98346.22;614629;231;68672;-72
2023/01/01 09:33:49;;;;;;;;;;;;;;;24.37;55.81;98348.91;614622;231;63588;-72
2023/01/01 09:36:21;;;;;;;;;;;;;;;24.35;54.35;98342.98;614671;231;68704;-72
2023/01/01 09:38:52;;;;;;;;;;;;;;;24.35;55.74;98337.61;614656;231;66420;-71
2023/01/01 09:41:21;;;;;;;;;;;;;;;24.34;55.21;98339.49;614689;231;65227;-71
2023/01/01 09:43:52;;;;;;;;;;;;;;;24.33;53.99;98334.36;614687;231;68707;-71
2023/01/01 09:46:21;;;;;;;;;;;;;;;24.33;54.82;98329.80;614505;230;68515;-72
2023/01/01 09:48:50;;;;;;;;;;;;;;;24.33;54.72;98327.11;614672;231;62793;-71
2023/01/01 09:51:19;;;;;;;;;;;;;;;24.31;54.80;98329.27;614536;230;66453;-72
2023/01/01 09:53:54;;;;;;;;;;;;;;;24.33;55.96;98331.68;614695;231;68516;-71
2023/01/01 09:56:23;;;;;;;;;;;;;;;24.31;54.49;98325.78;614327;230;64918;-71
2023/01/01 09:58:51;;;;;;;;;;;;;;;24.30;54.51;98326.83;614621;230;68715;-71
2023/01/01 10:01:20;;;;;;;;;;;;;;;24.30;56.34;98321.45;614682;231;68605;-71
2023/01/01 10:03:52;;;;;;;;;;;;;;;24.29;53.05;98322.54;614668;231;62764;-71
2023/01/01 10:06:24;;;;;;;;;;;;;;;24.28;55.35;98313.67;614624;230;68594;-71
2023/01/01 10:08:56;;;;;;;;;;;;;;;24.28;55.27;98312.84;614676;231;68241;-71
2023/01/01 10:11:25;;;;;;;;;;;;;;;24.26;54.87;98312.32;614484;231;64916;-71
2023/01/01 10:13:54;;;;;;;;;;;;;;;24.27;54.75;98313.92;614644;230;66085;-71
2023/01/01 10:16:29;;;;;;;;;;;;;;;24.25;54.15;98314.17;614611;231;68811;-72
2023/01/01 10:18:58;;;;;;;;;;;;;;;24.26;55.45;98315.00;614670;231;62828;-72
2023/01/01 10:21:33;;;;;;;;;;;;;;;24.25;54.99;98310.69;614712;231;68650;-71
2023/01/01 10:24:18;;;;;;;;;;;;;;;24.24;55.02;98309.87;614333;230;68471;-72
2023/01/01 10:26:46;;;;;;;;;;;;;;;24.24;56.26;98309.87;614287;230;64876;-71
2023/01/01 10:29:18;;;;;;;;;;;;;;;24.23;55.37;98305.59;614674;231;68765;-71
2023/01/01 10:31:45;;;;;;;;;;;;;;;24.23;56.67;98304.78;614558;230;69162;-71
2023/01/01 10:34:31;;;;;;;;;;;;;;;24.20;55.89;98306.11;614713;231;64996;-71
2023/01/01 10:36:55;;;;;;;;;;;;;;;24.20;55.20;98305.28;614255;230;68618;-67
2023/01/01 10:39:22;;;;;;;;;;;;;;;24.19;54.58;98293.73;614183;230;68615;-67
2023/01/01 10:41:50;;;;;;;;;;;;;;;24.19;55.35;98296.42;614620;231;65061;-67
2023/01/01 10:44:19;;;;;;;;;;;;;;;24.18;55.11;98294.02;614554;231;69016;-67
2023/01/01 10:46:48;;;;;;;;;;;;;;;24.19;55.66;98287.56;614401;230;68633;-67
2023/01/01 10:49:16;;;;;;;;;;;;;;;24.19;56.63;98292.93;614628;231;65085;-67
2023/01/01 10:51:44;;;;;;;;;;;;;;;24.17;54.50;98285.12;613902;231;68785;-71
2023/01/01 10:54:23;;;;;;;;;;;;;;;24.15;55.72;98282.71;613702;231;69446;-71
2023/01/01 10:56:50;;;;;;;;;;;;;;;24.15;55.25;98273.85;613852;231;65672;-71
2023/01/01 10:59:34;;;;;;;;;;;;;;;24.14;54.52;98275.73;614290;231;68780;-71
2023/01/01 11:02:23;;;;;;;;;;;;;;;24.15;56.21;98279.22;614104;231;48756;-70
2023/01/01 11:04:52;;;;;;;;;;;;;;;24.14;55.29;98270.36;614296;231;65305;-71
2023/01/01 11:07:21;;;;;;;;;;;;;;;24.13;55.63;98276.78;614556;231;69613;-71
2023/01/01 11:09:50;;;;;;;;;;;;;;;24.12;54.55;98271.69;614693;231;49920;-71
2023/01/01 11:12:19;;;;;;;;;;;;;;;24.11;54.23;98270.86;614662;231;64847;-71
2023/01/01 11:14:57;;;;;;;;;;;;;;;24.11;54.32;98268.17;614618;231;68645;-71
2023/01/01 11:17:26;;;;;;;;;;;;;;;24.10;56.20;98266.57;614676;230;66513;-72
2023/01/01 11:19:54;;;;;;;;;;;;;;;24.10;54.32;98263.88;614699;231;65092;-71
2023/01/01 11:22:35;;;;;;;;;;;;;;;24.10;55.04;98263.88;614745;231;69231;-71
2023/01/01 11:25:04;;;;;;;;;;;;;;;24.10;55.70;98255.83;614703;231;68311;-71
2023/01/01 11:27:31;;;;;;;;;;;;;;;24.10;56.12;98252.34;614629;231;64894;-71
2023/01/01 11:30:15;;;;;;;;;;;;;;;24.10;57.88;98244.28;614689;231;68631;-71
2023/01/01 11:32:42;;;;;;;;;;;;;;;24.10;56.02;98247.77;614510;230;68894;-68
2023/01/01 11:35:11;;;;;;;;;;;;;;;24.09;56.97;98248.85;614696;231;64888;-68
2023/01/01 11:37:40;;;;;;;;;;;;;;;24.09;56.29;98246.16;614532;230;68663;-68
2023/01/01 11:40:09;;;;;;;;;;;;;;;24.09;55.55;98238.11;614653;231;68500;-68
2023/01/01 11:42:37;;;;;;;;;;;;;;;24.08;54.69;98233.79;614456;230;63017;-68
2023/01/01 11:45:06;;;;;;;;;;;;;;;24.10;56.07;98236.22;614687;231;66472;-68
2023/01/01 11:47:35;;;;;;;;;;;;;;;24.09;54.33;98224.68;614600;230;66464;-68
2023/01/01 11:50:04;;;;;;;;;;;;;;;24.10;55.84;98222.80;614737;231;64923;-68
2023/01/01 11:52:39;;;;;;;;;;;;;;;24.09;55.80;98219.31;614651;231;68906;-68
2023/01/01 11:55:17;;;;;;;;;;;;;;;24.10;53.84;98226.28;614693;231;68626;-68
2023/01/01 11:57:46;;;;;;;;;;;;;;;24.10;54.85;98220.11;614678;231;65061;-68
2023/01/01 12:00:15;;;;;;;;;;;;;;;24.09;54.81;98219.31;614360;230;69158;-69
2023/01/01 12:02:50;;;;;;;;;;;;;;;24.10;56.05;98223.59;614688;231;68592;-68
2023/01/01 12:05:22;;;;;;;;;;;;;;;24.10;56.05;98225.48;614616;230;62877;-68
2023/01/01 12:07:50;;;;;;;;;;;;;;;24.10;55.74;98223.59;614710;231;69532;-68
2023/01/01 12:10:19;;;;;;;;;;;;;;;24.09;53.77;98219.31;614728;231;68657;-68
2023/01/01 12:12:51;;;;;;;;;;;;;;;24.09;55.79;98219.31;614739;231;65060;-68
2023/01/01 12:15:20;;;;;;;;;;;;;;;24.10;56.42;98220.91;614712;231;68949;-68
2023/01/01 12:17:49;;;;;;;;;;;;;;;24.10;54.50;98220.91;614534;231;66695;-68
2023/01/01 12:20:23;;;;;;;;;;;;;;;24.10;55.63;98220.91;614632;231;62953;-68
2023/01/01 12:22:48;;;;;;;;;;;;;;;24.11;55.91;98224.40;614244;230;66718;-68
2023/01/01 12:25:17;;;;;;;;;;;;;;;24.11;54.34;98219.83;614713;231;68160;-68
2023/01/01 12:27:46;;;;;;;;;;;;;;;24.11;53.31;98219.83;609081;231;64986;-68
2023/01/01 12:30:15;;;;;;;;;;;;;;;24.11;54.82;98222.52;606595;234;68783;-68
2023/01/01 12:32:47;;;;;;;;;;;;;;;24.11;55.16;98217.14;606020;233;68483;-68
2023/01/01 12:35:16;;;;;;;;;;;;;;;24.11;56.36;98211.77;600708;234;65038;-68
2023/01/01 12:37:51;;;;;;;;;;;;;;;24.11;58.14;98211.77;603661;234;68712;-68
2023/01/01 12:40:32;;;;;;;;;;;;;;;24.11;53.96;98208.29;606617;234;66375;-68
2023/01/01 12:43:01;;;;;;;;;;;;;;;24.13;54.63;98204.27;606417;233;65117;-68
2023/01/01 12:45:33;;;;;;;;;;;;;;;24.12;54.58;98208.04;606662;234;66585;-68
2023/01/01 12:48:18;;;;;;;;;;;;;;;24.13;53.82;98195.41;606360;233;68981;-68
2023/01/01 12:50:53;;;;;;;;;;;;;;;24.13;54.10;98198.90;606651;234;63675;-69
2023/01/01 12:53:39;;;;;;;;;;;;;;;24.14;53.27;98197.84;606420;233;66352;-68
2023/01/01 12:56:20;;;;;;;;;;;;;;;24.15;53.57;98198.65;606666;234;66338;-69
2023/01/01 12:58:45;;;;;;;;;;;;;;;24.16;52.73;98192.20;606307;233;65188;-69
2023/01/01 13:01:14;;;;;;;;;;;;;;;24.17;53.43;98190.31;606560;233;68610;-69